Time;durP1;ratioP1;P1;durP2;ratioP2;P2;SDS_P1;SDS_P2;PMS_P1;PMS_P2;Temp;Humidity;BMP_temperature;BMP_pressure;BME280_temperature;BME280_humidity;BME280_pressure;Samples;Min_cycle;Max_cycle;Signal;HPM_P1;HPM_P2
2021/12/12 00:01:24;;;;;;;;;;;4.80;99.90;;;;;;5064657;28;19924;-80
2021/12/12 00:03:53;;;;;;;;;;;4.90;99.90;;;;;;5065603;28;19927;-78
2021/12/12 00:06:21;;;;;;;;;;;4.90;99.90;;;;;;5066665;28;19927;-77
2021/12/12 00:08:51;;;;;;;;;;;4.90;99.90;;;;;;5072578;28;19932;-79
2021/12/12 00:11:19;;;;;;;;;;;4.90;99.90;;;;;;5054472;28;20315;-77
2021/12/12 00:13:47;;;;;;;;;;;4.90;99.90;;;;;;5064085;28;19916;-79
2021/12/12 00:16:12;;;;;;;;;;;4.90;99.90;;;;;;5052979;28;19925;-79
2021/12/12 00:18:41;;;;;;;;;;;4.90;99.90;;;;;;5065388;28;19970;-79
2021/12/12 00:21:07;;;;;;;;;;;5.00;99.90;;;;;;5064372;28;19921;-79
2021/12/12 00:23:33;;;;;;;;;;;5.00;99.90;;;;;;5060778;28;19932;-79
2021/12/12 00:25:59;;;;;;;;;;;5.00;99.90;;;;;;5061660;28;19925;-80
2021/12/12 00:28:25;;;;;;;;;;;5.00;99.90;;;;;;5061039;28;20315;-79
2021/12/12 00:30:53;;;;;;;;;;;5.00;99.90;;;;;;5063532;28;19920;-79
2021/12/12 00:33:19;;;;;;;;;;;5.00;99.90;;;;;;5063296;28;19920;-79
2021/12/12 00:35:45;;;;;;;;;;;5.00;99.90;;;;;;5063934;28;20242;-79
2021/12/12 00:38:13;;;;;;;;;;;5.00;99.90;;;;;;5061833;28;19917;-78
2021/12/12 00:40:41;;;;;;;;;;;5.00;99.90;;;;;;5063226;28;19967;-79
2021/12/12 00:43:11;;;;;;;;;;;5.00;99.90;;;;;;5060292;28;20750;-78
2021/12/12 00:45:37;;;;;;;;;;;5.00;99.90;;;;;;5062400;28;19964;-78
2021/12/12 00:48:03;;;;;;;;;;;5.00;99.90;;;;;;5064498;28;19947;-87
2021/12/12 00:50:33;;;;;;;;;;;5.00;99.90;;;;;;5067908;28;19920;-86
2021/12/12 00:53:00;;;;;;;;;;;5.10;99.90;;;;;;5069935;28;19969;-80
2021/12/12 00:55:26;;;;;;;;;;;5.10;99.90;;;;;;5066754;28;20304;-81
2021/12/12 00:57:53;;;;;;;;;;;5.10;99.90;;;;;;5066780;28;19946;-78
2021/12/12 01:00:36;;;;;;;;;;;5.10;99.90;;;;;;5062257;28;19934;-79
2021/12/12 01:03:03;;;;;;;;;;;5.10;99.90;;;;;;5063211;28;20007;-79
2021/12/12 01:05:28;;;;;;;;;;;5.10;99.90;;;;;;5059608;28;19924;-79
2021/12/12 01:07:54;;;;;;;;;;;5.10;99.90;;;;;;5065406;28;19943;-78
2021/12/12 01:10:20;;;;;;;;;;;5.10;99.90;;;;;;5062516;28;19927;-77
2021/12/12 01:12:46;;;;;;;;;;;5.20;99.90;;;;;;5064611;28;19917;-78
2021/12/12 01:15:23;;;;;;;;;;;5.20;99.90;;;;;;5055052;28;19920;-78
2021/12/12 01:17:52;;;;;;;;;;;5.20;99.90;;;;;;5062054;28;19931;-76
2021/12/12 01:20:33;;;;;;;;;;;5.20;99.90;;;;;;5063849;28;19924;-77
2021/12/12 01:23:01;;;;;;;;;;;5.20;99.90;;;;;;5058233;28;19929;-77
2021/12/12 01:25:29;;;;;;;;;;;5.20;99.90;;;;;;5066793;28;20246;-78
2021/12/12 01:27:55;;;;;;;;;;;5.20;99.90;;;;;;5064731;28;20046;-75
2021/12/12 01:30:21;;;;;;;;;;;5.20;99.90;;;;;;5064449;28;19940;-76
2021/12/12 01:32:47;;;;;;;;;;;5.20;99.90;;;;;;5058042;28;20692;-81
2021/12/12 01:35:18;;;;;;;;;;;5.20;99.90;;;;;;5061418;28;20029;-79
2021/12/12 01:38:50;;;;;;;;;;;5.20;99.90;;;;;;5061916;28;19939;-86
2021/12/12 01:40:31;;;;;;;;;;;5.20;99.90;;;;;;5066367;28;20497;-84
2021/12/12 01:43:03;;;;;;;;;;;5.20;99.90;;;;;;5067136;28;19921;-77
2021/12/12 01:45:35;;;;;;;;;;;5.20;99.90;;;;;;5062174;28;19920;-77
2021/12/12 01:48:03;;;;;;;;;;;5.20;99.90;;;;;;5060461;28;20254;-76
2021/12/12 01:50:29;;;;;;;;;;;5.20;99.90;;;;;;5060404;28;19997;-76
2021/12/12 01:52:56;;;;;;;;;;;5.20;99.90;;;;;;5061793;28;19962;-77
2021/12/12 01:55:25;;;;;;;;;;;5.20;99.90;;;;;;5060747;28;19920;-86
2021/12/12 01:57:53;;;;;;;;;;;5.20;99.90;;;;;;5061531;28;20602;-77
2021/12/12 02:00:24;;;;;;;;;;;5.20;99.90;;;;;;5063680;28;19924;-77
2021/12/12 02:02:50;;;;;;;;;;;5.20;99.90;;;;;;5059974;28;19923;-76
2021/12/12 02:05:17;;;;;;;;;;;5.20;99.90;;;;;;5064307;28;20262;-76
2021/12/12 02:07:43;;;;;;;;;;;5.20;99.90;;;;;;5062350;28;19916;-77
2021/12/12 02:10:11;;;;;;;;;;;5.20;99.90;;;;;;5061788;28;19920;-76
2021/12/12 02:12:38;;;;;;;;;;;5.20;99.90;;;;;;5065203;28;19932;-76
2021/12/12 02:15:06;;;;;;;;;;;5.20;99.90;;;;;;5062792;28;19920;-76
2021/12/12 02:17:37;;;;;;;;;;;5.20;99.90;;;;;;5070851;28;19924;-76
2021/12/12 02:20:33;;;;;;;;;;;5.20;99.90;;;;;;5065242;28;19916;-76
2021/12/12 02:36:35;;;;;;;;;;;5.10;99.90;;;;;;5067310;28;19939;-77
2021/12/12 02:39:02;;;;;;;;;;;5.20;99.90;;;;;;5060499;28;19931;-75
2021/12/12 02:41:28;;;;;;;;;;;5.20;99.90;;;;;;5059717;28;19952;-77
2021/12/12 02:44:00;;;;;;;;;;;5.20;99.90;;;;;;5059759;28;20060;-75
2021/12/12 02:46:28;;;;;;;;;;;5.10;99.90;;;;;;5060869;28;19921;-76
2021/12/12 02:49:03;;;;;;;;;;;5.10;99.90;;;;;;5060840;28;19921;-76
2021/12/12 02:51:29;;;;;;;;;;;5.10;99.90;;;;;;5061289;28;19917;-76
2021/12/12 02:53:56;;;;;;;;;;;5.20;99.90;;;;;;5059114;28;19947;-75
2021/12/12 02:56:23;;;;;;;;;;;5.20;99.90;;;;;;5064054;28;19928;-75
2021/12/12 02:58:49;;;;;;;;;;;5.20;99.90;;;;;;5060094;28;20639;-75
2021/12/12 03:01:24;;;;;;;;;;;5.20;99.90;;;;;;5059407;28;19917;-75
2021/12/12 03:03:50;;;;;;;;;;;5.20;99.90;;;;;;5062940;28;19948;-75
2021/12/12 03:06:19;;;;;;;;;;;5.20;99.90;;;;;;5061580;28;20046;-75
2021/12/12 03:08:46;;;;;;;;;;;5.20;99.90;;;;;;5058382;28;19916;-77
2021/12/12 03:11:12;;;;;;;;;;;5.20;99.90;;;;;;5058582;28;19917;-75
2021/12/12 03:13:38;;;;;;;;;;;5.20;99.90;;;;;;5062704;28;19928;-76
2021/12/12 03:16:04;;;;;;;;;;;5.20;99.90;;;;;;5059002;28;19917;-77
2021/12/12 03:18:33;;;;;;;;;;;5.20;99.90;;;;;;5061188;28;19924;-76
2021/12/12 03:21:02;;;;;;;;;;;5.20;99.90;;;;;;5061163;28;19916;-76
2021/12/12 03:23:33;;;;;;;;;;;5.20;99.90;;;;;;5066164;28;19929;-83
2021/12/12 03:26:07;;;;;;;;;;;5.30;99.90;;;;;;5068638;28;20335;-87
2021/12/12 03:28:35;;;;;;;;;;;5.30;99.90;;;;;;5066933;28;19956;-86
2021/12/12 03:31:04;;;;;;;;;;;5.30;99.90;;;;;;5062281;28;19920;-84
2021/12/12 03:33:32;;;;;;;;;;;5.30;99.90;;;;;;5070464;28;20292;-89
2021/12/12 03:35:59;;;;;;;;;;;5.30;99.90;;;;;;5057938;28;19927;-86
2021/12/12 03:38:27;;;;;;;;;;;5.30;99.90;;;;;;5071404;28;19973;-77
2021/12/12 03:40:53;;;;;;;;;;;5.30;99.90;;;;;;5066849;28;19916;-81
2021/12/12 03:43:19;;;;;;;;;;;5.30;99.90;;;;;;5064927;28;20007;-85
2021/12/12 03:45:45;;;;;;;;;;;5.30;99.90;;;;;;5064353;28;20007;-77
2021/12/12 03:48:13;;;;;;;;;;;5.40;99.90;;;;;;5068364;28;19919;-88
2021/12/12 03:50:40;;;;;;;;;;;5.40;99.90;;;;;;5069205;28;19913;-90
2021/12/12 03:53:06;;;;;;;;;;;5.40;99.90;;;;;;5069548;28;19935;-87
2021/12/12 03:55:32;;;;;;;;;;;5.40;99.90;;;;;;5070077;28;20180;-88
2021/12/12 03:57:58;;;;;;;;;;;5.40;99.90;;;;;;5072496;28;20018;-85
2021/12/12 04:00:26;;;;;;;;;;;5.40;99.90;;;;;;5073509;28;20601;-86
2021/12/12 04:02:52;;;;;;;;;;;5.40;99.90;;;;;;5072084;28;19927;-87
2021/12/12 04:05:18;;;;;;;;;;;5.40;99.90;;;;;;5070790;28;20230;-82
2021/12/12 04:07:43;;;;;;;;;;;5.50;99.90;;;;;;5075296;28;20244;-85
2021/12/12 04:10:12;;;;;;;;;;;5.40;99.90;;;;;;5071717;28;19978;-88
2021/12/12 04:12:38;;;;;;;;;;;5.50;99.90;;;;;;5072343;28;19927;-78
2021/12/12 04:15:04;;;;;;;;;;;5.50;99.90;;;;;;5069146;28;19999;-86
2021/12/12 04:17:30;;;;;;;;;;;5.50;99.90;;;;;;5067574;28;19916;-87
2021/12/12 04:19:58;;;;;;;;;;;5.50;99.90;;;;;;5067735;28;20352;-77
2021/12/12 04:22:24;;;;;;;;;;;5.50;99.90;;;;;;5068923;28;19924;-85
2021/12/12 04:24:52;;;;;;;;;;;5.60;99.90;;;;;;5072573;28;19913;-87
2021/12/12 04:27:18;;;;;;;;;;;5.60;99.90;;;;;;5069745;28;20315;-83
2021/12/12 04:29:45;;;;;;;;;;;5.60;99.90;;;;;;5069124;28;19931;-77
2021/12/12 04:32:16;;;;;;;;;;;5.60;99.90;;;;;;5070768;28;20011;-89
2021/12/12 04:34:43;;;;;;;;;;;5.60;99.90;;;;;;5063518;28;19913;-77
2021/12/12 04:37:09;;;;;;;;;;;5.70;99.90;;;;;;5056801;28;19967;-84
2021/12/12 04:39:38;;;;;;;;;;;5.70;99.90;;;;;;5066652;28;19944;-77
2021/12/12 04:42:14;;;;;;;;;;;5.70;99.90;;;;;;5056308;28;19927;-77
2021/12/12 04:44:41;;;;;;;;;;;5.80;99.90;;;;;;5070043;28;19921;-77
2021/12/12 04:50:15;;;;;;;;;;;5.80;99.90;;;;;;5069932;28;19970;-87
2021/12/12 04:52:44;;;;;;;;;;;5.80;99.90;;;;;;5087064;28;19919;-86
2021/12/12 04:55:11;;;;;;;;;;;5.80;99.90;;;;;;5070696;28;19919;-78
2021/12/12 04:57:55;;;;;;;;;;;5.90;99.90;;;;;;5064217;28;19935;-78
2021/12/12 05:00:23;;;;;;;;;;;6.00;99.90;;;;;;5065368;28;19919;-81
2021/12/12 05:02:55;;;;;;;;;;;6.00;99.90;;;;;;5067007;28;20019;-79
2021/12/12 05:05:36;;;;;;;;;;;6.00;99.90;;;;;;5069156;28;19982;-88
2021/12/12 05:08:03;;;;;;;;;;;6.00;99.90;;;;;;5087931;28;19912;-88
2021/12/12 05:10:31;;;;;;;;;;;6.00;99.90;;;;;;5069989;28;19917;-86
2021/12/12 05:13:06;;;;;;;;;;;6.10;99.90;;;;;;5068636;28;19916;-86
2021/12/12 05:15:40;;;;;;;;;;;6.10;99.90;;;;;;5066700;28;19916;-86
2021/12/12 05:18:22;;;;;;;;;;;6.10;99.90;;;;;;5066662;28;20479;-77
2021/12/12 05:20:52;;;;;;;;;;;6.20;99.90;;;;;;5069659;28;20722;-79
2021/12/12 05:23:20;;;;;;;;;;;6.20;99.90;;;;;;5066720;28;20011;-80
2021/12/12 05:25:46;;;;;;;;;;;6.10;99.90;;;;;;5068302;28;20629;-89
2021/12/12 05:28:13;;;;;;;;;;;6.20;99.90;;;;;;5064577;28;19920;-88
2021/12/12 05:30:39;;;;;;;;;;;6.20;99.90;;;;;;5071275;28;19917;-88
2021/12/12 05:33:05;;;;;;;;;;;6.20;99.90;;;;;;5069735;28;19916;-90
2021/12/12 05:35:35;;;;;;;;;;;6.20;99.90;;;;;;5071813;28;20239;-89
2021/12/12 05:38:01;;;;;;;;;;;6.20;99.90;;;;;;5069207;28;19912;-89
2021/12/12 05:40:30;;;;;;;;;;;6.20;99.90;;;;;;5066731;28;19971;-89
2021/12/12 05:42:59;;;;;;;;;;;6.20;99.90;;;;;;5051677;28;19920;-77
2021/12/12 05:45:29;;;;;;;;;;;6.20;99.90;;;;;;5057971;28;19920;-81
2021/12/12 05:47:55;;;;;;;;;;;6.30;99.90;;;;;;5068998;28;20601;-85
2021/12/12 05:50:21;;;;;;;;;;;6.30;99.90;;;;;;5069990;28;19956;-86
2021/12/12 05:52:47;;;;;;;;;;;6.30;99.90;;;;;;5068749;28;20007;-77
2021/12/12 05:55:15;;;;;;;;;;;6.30;99.90;;;;;;5069390;28;20023;-91
2021/12/12 05:57:43;;;;;;;;;;;6.30;99.90;;;;;;5066546;28;19923;-80
2021/12/12 06:00:12;;;;;;;;;;;6.30;99.90;;;;;;5087226;28;19920;-88
2021/12/12 06:02:38;;;;;;;;;;;6.40;99.90;;;;;;5070083;28;19970;-86
2021/12/12 06:05:04;;;;;;;;;;;6.40;99.90;;;;;;5066446;28;20215;-84
2021/12/12 06:07:30;;;;;;;;;;;6.40;99.90;;;;;;5064154;28;19924;-89
2021/12/12 06:09:56;;;;;;;;;;;6.40;99.90;;;;;;5063051;28;20004;-81
2021/12/12 06:12:22;;;;;;;;;;;6.40;99.90;;;;;;5069203;28;19961;-90
2021/12/12 06:14:48;;;;;;;;;;;6.40;99.90;;;;;;5067250;28;19924;-88
2021/12/12 06:17:16;;;;;;;;;;;6.50;99.90;;;;;;5066451;28;19938;-90
2021/12/12 06:19:42;;;;;;;;;;;6.50;99.90;;;;;;5068607;28;20315;-78
2021/12/12 06:22:08;;;;;;;;;;;6.50;99.90;;;;;;5070907;28;19935;-82
2021/12/12 06:24:34;;;;;;;;;;;6.50;99.90;;;;;;5068885;28;19928;-86
2021/12/12 06:27:10;;;;;;;;;;;6.50;99.90;;;;;;5066505;28;20514;-89
2021/12/12 06:29:36;;;;;;;;;;;6.50;99.90;;;;;;5069835;28;19912;-86
2021/12/12 06:32:03;;;;;;;;;;;6.50;99.90;;;;;;5070967;28;19913;-88
2021/12/12 06:34:28;;;;;;;;;;;6.60;99.90;;;;;;5068278;28;20326;-86
2021/12/12 06:36:54;;;;;;;;;;;6.60;99.90;;;;;;5078524;28;19944;-87
2021/12/12 06:39:20;;;;;;;;;;;6.60;99.90;;;;;;5064414;28;19991;-85
2021/12/12 06:41:46;;;;;;;;;;;6.60;99.90;;;;;;5068711;28;19917;-90
2021/12/12 06:44:13;;;;;;;;;;;6.60;99.90;;;;;;5062066;28;19916;-88
2021/12/12 06:46:39;;;;;;;;;;;6.60;99.90;;;;;;5068438;28;19916;-88
2021/12/12 06:49:06;;;;;;;;;;;6.60;99.90;;;;;;5068284;28;19959;-90
2021/12/12 06:51:33;;;;;;;;;;;6.60;99.90;;;;;;5053614;28;19949;-77
2021/12/12 06:53:59;;;;;;;;;;;6.60;99.90;;;;;;5062196;28;19916;-79
2021/12/12 06:56:25;;;;;;;;;;;6.70;99.90;;;;;;5063433;28;19939;-77
2021/12/12 06:58:51;;;;;;;;;;;6.70;99.90;;;;;;5063141;28;20273;-77
2021/12/12 07:01:18;;;;;;;;;;;6.70;99.90;;;;;;5065390;28;20019;-82
2021/12/12 07:03:45;;;;;;;;;;;6.70;99.90;;;;;;5063504;28;21194;-89
2021/12/12 07:06:11;;;;;;;;;;;6.70;99.90;;;;;;5067709;28;20309;-87
2021/12/12 07:08:37;;;;;;;;;;;6.70;99.90;;;;;;5066512;28;20111;-80
2021/12/12 07:11:03;;;;;;;;;;;6.70;99.90;;;;;;5065050;28;19920;-87
2021/12/12 07:13:29;;;;;;;;;;;6.80;99.90;;;;;;5068032;28;19966;-91
2021/12/12 07:15:56;;;;;;;;;;;6.80;99.90;;;;;;5066721;28;20003;-87
2021/12/12 07:18:24;;;;;;;;;;;6.80;99.90;;;;;;5069098;28;20047;-89
2021/12/12 07:20:52;;;;;;;;;;;6.80;99.90;;;;;;5072049;28;19919;-88
2021/12/12 07:23:17;;;;;;;;;;;6.90;99.90;;;;;;5070992;28;19990;-88
2021/12/12 07:25:44;;;;;;;;;;;6.90;99.90;;;;;;5069801;28;20316;-86
2021/12/12 07:28:10;;;;;;;;;;;6.90;99.90;;;;;;5067590;28;19938;-92
2021/12/12 07:30:37;;;;;;;;;;;6.90;99.90;;;;;;5063048;28;20216;-76
2021/12/12 07:33:04;;;;;;;;;;;7.00;99.90;;;;;;5063555;28;19923;-76
2021/12/12 07:35:33;;;;;;;;;;;6.90;99.90;;;;;;5062634;28;20535;-77
2021/12/12 07:37:59;;;;;;;;;;;7.00;99.90;;;;;;5064553;28;19924;-77
2021/12/12 07:40:24;;;;;;;;;;;7.00;99.90;;;;;;5060907;28;19922;-77
2021/12/12 07:42:50;;;;;;;;;;;7.00;99.90;;;;;;5063038;28;20591;-77
2021/12/12 07:45:16;;;;;;;;;;;7.00;99.90;;;;;;5064304;28;19912;-78
2021/12/12 07:47:43;;;;;;;;;;;7.00;99.90;;;;;;5065685;28;19917;-80
2021/12/12 07:50:10;;;;;;;;;;;7.10;99.90;;;;;;5061010;28;19924;-78
2021/12/12 07:52:36;;;;;;;;;;;7.10;99.90;;;;;;5070753;28;19912;-78
2021/12/12 07:55:02;;;;;;;;;;;7.10;99.90;;;;;;5071729;28;19966;-87
2021/12/12 07:57:29;;;;;;;;;;;7.10;99.90;;;;;;5064558;28;19920;-89
2021/12/12 07:59:56;;;;;;;;;;;7.10;99.90;;;;;;5064778;28;19970;-77
2021/12/12 08:02:23;;;;;;;;;;;7.10;99.90;;;;;;5068527;28;19946;-88
2021/12/12 08:04:48;;;;;;;;;;;7.20;99.90;;;;;;5068306;28;20381;-76
2021/12/12 08:07:15;;;;;;;;;;;7.20;99.90;;;;;;5074938;28;19920;-92
2021/12/12 08:09:42;;;;;;;;;;;7.20;99.90;;;;;;5068197;28;19913;-77
2021/12/12 08:12:09;;;;;;;;;;;7.20;99.90;;;;;;5065156;28;19935;-76
2021/12/12 08:14:35;;;;;;;;;;;7.20;99.90;;;;;;5063701;28;19916;-77
2021/12/12 08:17:01;;;;;;;;;;;7.30;99.90;;;;;;5064325;28;19965;-76
2021/12/12 08:19:27;;;;;;;;;;;7.30;99.90;;;;;;5065539;28;19920;-77
2021/12/12 08:21:54;;;;;;;;;;;7.30;99.90;;;;;;5065930;28;19928;-76
2021/12/12 08:24:20;;;;;;;;;;;7.30;99.90;;;;;;5065049;28;20243;-77
2021/12/12 08:26:46;;;;;;;;;;;7.30;99.90;;;;;;5068442;28;19998;-77
2021/12/12 08:29:12;;;;;;;;;;;7.30;99.90;;;;;;5061649;28;19960;-76
2021/12/12 08:31:38;;;;;;;;;;;7.40;99.90;;;;;;5062285;28;19920;-77
2021/12/12 08:34:05;;;;;;;;;;;7.40;99.90;;;;;;5063597;28;19950;-76
2021/12/12 08:36:33;;;;;;;;;;;7.40;99.90;;;;;;5065148;28;20374;-77
2021/12/12 08:38:58;;;;;;;;;;;7.40;99.90;;;;;;5064367;28;19944;-76
2021/12/12 08:41:24;;;;;;;;;;;7.40;99.90;;;;;;5066235;28;19970;-76
2021/12/12 08:43:50;;;;;;;;;;;7.50;99.90;;;;;;5064303;28;19924;-76
2021/12/12 08:46:16;;;;;;;;;;;7.50;99.90;;;;;;5066522;28;20002;-76
2021/12/12 08:48:44;;;;;;;;;;;7.50;99.90;;;;;;5065458;28;19955;-76
2021/12/12 08:51:22;;;;;;;;;;;7.50;99.90;;;;;;5066565;28;19963;-76
2021/12/12 08:53:50;;;;;;;;;;;7.50;99.90;;;;;;5069343;28;20024;-83
2021/12/12 08:56:29;;;;;;;;;;;7.50;99.90;;;;;;5050050;28;19917;-76
2021/12/12 08:58:55;;;;;;;;;;;7.50;99.90;;;;;;5067391;28;19995;-77
2021/12/12 09:01:21;;;;;;;;;;;7.50;99.90;;;;;;5079055;28;20038;-86
2021/12/12 09:03:51;;;;;;;;;;;7.60;99.90;;;;;;5068851;28;20352;-88
2021/12/12 09:06:19;;;;;;;;;;;7.60;99.90;;;;;;5072099;28;19927;-88
2021/12/12 09:08:50;;;;;;;;;;;7.60;99.90;;;;;;5068221;28;19912;-89
2021/12/12 09:11:18;;;;;;;;;;;7.60;99.90;;;;;;5065456;28;19962;-84
2021/12/12 09:13:53;;;;;;;;;;;7.60;99.90;;;;;;5060774;28;20004;-76
2021/12/12 09:16:25;;;;;;;;;;;7.70;99.90;;;;;;5060193;28;19916;-76
2021/12/12 09:18:56;;;;;;;;;;;7.70;99.90;;;;;;5061152;28;19978;-76
2021/12/12 09:21:26;;;;;;;;;;;7.70;99.90;;;;;;5069543;28;19935;-76
2021/12/12 09:24:13;;;;;;;;;;;7.80;99.90;;;;;;5062381;28;19929;-78
2021/12/12 09:26:44;;;;;;;;;;;7.80;99.90;;;;;;5068625;28;19927;-84
2021/12/12 09:29:19;;;;;;;;;;;7.80;99.90;;;;;;5072563;28;19919;-86
2021/12/12 09:31:53;;;;;;;;;;;7.80;99.90;;;;;;5085820;28;21536;-86
2021/12/12 09:34:27;;;;;;;;;;;7.90;99.90;;;;;;5067215;28;19916;-86
2021/12/12 09:36:58;;;;;;;;;;;7.90;99.90;;;;;;5070559;28;19917;-89
2021/12/12 09:39:26;;;;;;;;;;;7.90;99.90;;;;;;5070940;28;19921;-87
2021/12/12 09:41:54;;;;;;;;;;;7.90;99.90;;;;;;5072693;28;20426;-86
2021/12/12 09:44:32;;;;;;;;;;;7.90;99.90;;;;;;5063481;28;19924;-76
2021/12/12 09:47:26;;;;;;;;;;;7.90;99.90;;;;;;5061179;28;19924;-76
2021/12/12 09:53:00;;;;;;;;;;;8.00;99.90;;;;;;5062310;28;20700;-76
2021/12/12 09:55:58;;;;;;;;;;;8.00;99.90;;;;;;5070073;28;19920;-76
2021/12/12 09:58:42;;;;;;;;;;;8.00;99.90;;;;;;5049643;28;19920;-88
2021/12/12 10:01:13;;;;;;;;;;;8.00;99.90;;;;;;5067966;28;19963;-86
2021/12/12 10:03:45;;;;;;;;;;;8.00;99.90;;;;;;5067831;28;20270;-85
2021/12/12 10:06:16;;;;;;;;;;;8.10;99.90;;;;;;5069587;28;19920;-85
2021/12/12 10:08:54;;;;;;;;;;;8.10;99.90;;;;;;5069269;28;19923;-81
2021/12/12 10:11:40;;;;;;;;;;;8.20;99.90;;;;;;5065603;28;19938;-77
2021/12/12 10:14:38;;;;;;;;;;;8.20;99.90;;;;;;5064408;28;20598;-76
2021/12/12 10:17:22;;;;;;;;;;;8.30;99.90;;;;;;5078289;28;19927;-77
2021/12/12 10:19:57;;;;;;;;;;;8.30;99.90;;;;;;5064497;28;20018;-76
2021/12/12 10:22:42;;;;;;;;;;;8.30;99.90;;;;;;5066916;28;19947;-77
2021/12/12 10:25:14;;;;;;;;;;;8.30;99.90;;;;;;5082562;28;20305;-76
2021/12/12 10:27:45;;;;;;;;;;;8.30;99.90;;;;;;5068671;28;20319;-75
2021/12/12 10:30:18;;;;;;;;;;;8.30;99.90;;;;;;5053765;28;19927;-86
2021/12/12 10:33:04;;;;;;;;;;;8.40;99.90;;;;;;5075872;28;19912;-88
2021/12/12 10:35:41;;;;;;;;;;;8.40;99.90;;;;;;5062691;28;19916;-76
2021/12/12 10:38:27;;;;;;;;;;;8.40;99.90;;;;;;5058232;28;20366;-77
2021/12/12 10:41:04;;;;;;;;;;;8.40;99.90;;;;;;5047339;28;20327;-76
2021/12/12 10:43:38;;;;;;;;;;;8.40;99.90;;;;;;5066144;28;19924;-77
2021/12/12 10:46:23;;;;;;;;;;;8.40;99.90;;;;;;5080883;28;20457;-76
2021/12/12 10:48:57;;;;;;;;;;;8.40;99.90;;;;;;5061059;28;19923;-76
2021/12/12 10:51:23;;;;;;;;;;;8.40;99.90;;;;;;5078614;28;19951;-76
2021/12/12 10:54:04;;;;;;;;;;;8.40;99.90;;;;;;5065466;28;19916;-80
2021/12/12 10:56:33;;;;;;;;;;;8.50;99.90;;;;;;5069863;28;19912;-84
2021/12/12 10:59:00;;;;;;;;;;;8.50;99.90;;;;;;5067525;28;20319;-82
2021/12/12 11:01:32;;;;;;;;;;;8.50;99.90;;;;;;5071074;28;19913;-87
2021/12/12 11:04:18;;;;;;;;;;;8.60;99.90;;;;;;5069935;28;20266;-85
2021/12/12 11:06:49;;;;;;;;;;;8.60;99.90;;;;;;5087845;28;20327;-87
2021/12/12 11:09:30;;;;;;;;;;;8.60;99.90;;;;;;5072618;28;19917;-86
2021/12/12 11:12:06;;;;;;;;;;;8.70;99.90;;;;;;5074946;28;19955;-86
2021/12/12 11:14:37;;;;;;;;;;;8.70;99.90;;;;;;5072273;28;19916;-85
2021/12/12 11:17:12;;;;;;;;;;;8.70;99.90;;;;;;5065842;28;19912;-88
2021/12/12 11:19:45;;;;;;;;;;;8.80;99.90;;;;;;5068755;28;19979;-81
2021/12/12 11:22:14;;;;;;;;;;;8.70;99.90;;;;;;5074117;28;19918;-86
2021/12/12 11:24:48;;;;;;;;;;;8.80;99.90;;;;;;5066536;28;19956;-87
2021/12/12 11:27:19;;;;;;;;;;;8.90;99.90;;;;;;5073920;28;19916;-88
2021/12/12 11:29:49;;;;;;;;;;;8.90;99.90;;;;;;5079595;28;19928;-84
2021/12/12 11:32:21;;;;;;;;;;;8.90;99.90;;;;;;5071997;28;19925;-84
2021/12/12 11:34:47;;;;;;;;;;;9.00;99.90;;;;;;5065953;28;19920;-83
2021/12/12 11:37:16;;;;;;;;;;;9.00;99.90;;;;;;5070935;28;19920;-86
2021/12/12 11:40:14;;;;;;;;;;;9.00;99.90;;;;;;5058216;28;19921;-84
2021/12/12 11:43:00;;;;;;;;;;;9.00;99.90;;;;;;5029628;28;19921;-84
2021/12/12 11:45:31;;;;;;;;;;;9.10;99.90;;;;;;5011881;28;19940;-87
2021/12/12 11:48:10;;;;;;;;;;;9.10;99.90;;;;;;5031637;28;20359;-85
2021/12/12 11:50:50;;;;;;;;;;;9.20;99.90;;;;;;5032294;28;19917;-87
2021/12/12 11:53:16;;;;;;;;;;;9.30;99.90;;;;;;5009470;28;20130;-81
2021/12/12 11:55:44;;;;;;;;;;;9.30;99.90;;;;;;5031007;28;20012;-85
2021/12/12 11:58:16;;;;;;;;;;;9.40;99.90;;;;;;5013608;28;19917;-85
2021/12/12 12:00:46;;;;;;;;;;;9.40;99.90;;;;;;5032148;28;20019;-84
2021/12/12 12:03:16;;;;;;;;;;;9.40;99.90;;;;;;5013219;28;19916;-88
2021/12/12 12:05:44;;;;;;;;;;;9.50;99.90;;;;;;5010194;28;19921;-84
2021/12/12 12:08:12;;;;;;;;;;;9.50;99.90;;;;;;5031988;28;19913;-83
2021/12/12 12:10:56;;;;;;;;;;;9.50;99.90;;;;;;5032741;28;19964;-85
2021/12/12 12:13:44;;;;;;;;;;;9.50;99.90;;;;;;5030946;28;19917;-82
2021/12/12 12:16:28;;;;;;;;;;;9.50;99.90;;;;;;5031493;28;19917;-87
2021/12/12 12:19:00;;;;;;;;;;;9.60;99.90;;;;;;5058796;28;19921;-86
2021/12/12 12:21:34;;;;;;;;;;;9.60;99.90;;;;;;5071079;28;19913;-86
2021/12/12 12:26:54;;;;;;;;;;;9.50;99.90;;;;;;5070777;28;20314;-85
2021/12/12 12:29:32;;;;;;;;;;;9.50;99.90;;;;;;5069808;28;19923;-86
2021/12/12 12:32:07;;;;;;;;;;;9.60;99.90;;;;;;5071992;28;20216;-80
2021/12/12 12:34:51;;;;;;;;;;;9.60;99.90;;;;;;5072675;28;19917;-90
2021/12/12 12:37:36;;;;;;;;;;;9.60;99.90;;;;;;5070328;28;19919;-85
2021/12/12 12:40:20;;;;;;;;;;;9.60;99.90;;;;;;5065247;28;20246;-85
2021/12/12 12:43:05;;;;;;;;;;;9.60;99.90;;;;;;5062720;28;19921;-83
2021/12/12 12:45:49;;;;;;;;;;;9.60;99.90;;;;;;5070183;28;19918;-86
2021/12/12 12:48:33;;;;;;;;;;;9.60;99.90;;;;;;5073436;28;20327;-84
2021/12/12 12:51:11;;;;;;;;;;;9.70;99.90;;;;;;5075847;28;19912;-86
2021/12/12 12:53:55;;;;;;;;;;;9.70;99.90;;;;;;5075104;28;20022;-87
2021/12/12 12:56:39;;;;;;;;;;;9.70;99.90;;;;;;5077411;28;19916;-85
2021/12/12 12:59:24;;;;;;;;;;;9.80;99.90;;;;;;5077518;28;19966;-85
2021/12/12 13:02:12;;;;;;;;;;;9.80;99.90;;;;;;5076000;28;19947;-84
2021/12/12 13:04:58;;;;;;;;;;;9.80;99.90;;;;;;5075461;28;21143;-84
2021/12/12 13:07:31;;;;;;;;;;;9.90;99.90;;;;;;5074691;28;19975;-84
2021/12/12 13:10:04;;;;;;;;;;;9.90;99.90;;;;;;5070351;28;19916;-84
2021/12/12 13:13:00;;;;;;;;;;;9.90;99.90;;;;;;5076217;28;19919;-85
2021/12/12 13:15:55;;;;;;;;;;;9.90;99.90;;;;;;5070527;28;19912;-85
2021/12/12 13:18:29;;;;;;;;;;;10.00;99.90;;;;;;5048882;28;20346;-84
2021/12/12 13:21:13;;;;;;;;;;;10.00;99.90;;;;;;5051265;28;19912;-83
2021/12/12 13:23:48;;;;;;;;;;;10.00;99.90;;;;;;5053943;28;19951;-83
2021/12/12 13:26:19;;;;;;;;;;;10.00;99.90;;;;;;5037007;28;19972;-84
2021/12/12 13:29:13;;;;;;;;;;;10.00;99.90;;;;;;5035327;28;19919;-85
2021/12/12 13:31:47;;;;;;;;;;;10.00;99.90;;;;;;5054877;28;19917;-86
2021/12/12 13:34:15;;;;;;;;;;;10.10;99.90;;;;;;5053302;28;20300;-87
2021/12/12 13:36:46;;;;;;;;;;;10.20;99.90;;;;;;5055445;28;19912;-86
2021/12/12 13:39:15;;;;;;;;;;;10.40;99.90;;;;;;5038435;28;19947;-88
2021/12/12 13:41:55;;;;;;;;;;;10.40;99.90;;;;;;5049291;28;20015;-90
2021/12/12 13:44:40;;;;;;;;;;;10.50;99.90;;;;;;5042979;28;20016;-92
2021/12/12 13:47:16;;;;;;;;;;;10.60;99.90;;;;;;5029314;28;20013;-86
2021/12/12 13:49:51;;;;;;;;;;;10.50;99.90;;;;;;5054331;28;19917;-87
2021/12/12 13:52:29;;;;;;;;;;;10.50;99.90;;;;;;5041941;28;19992;-84
2021/12/12 13:54:56;;;;;;;;;;;10.50;99.90;;;;;;5053128;28;19955;-90
2021/12/12 13:57:36;;;;;;;;;;;10.50;99.90;;;;;;5075684;28;19913;-91
2021/12/12 14:00:02;;;;;;;;;;;10.50;99.90;;;;;;5074471;28;19912;-87
2021/12/12 14:02:28;;;;;;;;;;;10.50;99.90;;;;;;5072446;28;19932;-85
2021/12/12 14:05:13;;;;;;;;;;;10.50;99.90;;;;;;5076569;28;19909;-93
2021/12/12 14:07:41;;;;;;;;;;;10.40;99.90;;;;;;5071986;28;20035;-90
2021/12/12 14:10:15;;;;;;;;;;;10.50;99.90;;;;;;5071140;28;19919;-93
2021/12/12 14:12:43;;;;;;;;;;;10.50;99.90;;;;;;5073316;28;19944;-93
2021/12/12 14:15:13;;;;;;;;;;;10.50;99.90;;;;;;5067393;28;19919;-93
2021/12/12 14:17:42;;;;;;;;;;;10.40;99.90;;;;;;5069100;28;19916;-87
2021/12/12 14:20:13;;;;;;;;;;;10.50;99.90;;;;;;5068791;28;19917;-92
2021/12/12 14:22:38;;;;;;;;;;;10.40;99.90;;;;;;5072519;28;19916;-81
2021/12/12 14:25:06;;;;;;;;;;;10.50;99.90;;;;;;5075663;28;19919;-90
2021/12/12 14:27:33;;;;;;;;;;;10.40;99.90;;;;;;5076169;28;19924;-91
2021/12/12 14:30:00;;;;;;;;;;;10.40;99.90;;;;;;5064020;28;20007;-93
2021/12/12 14:32:30;;;;;;;;;;;10.40;99.90;;;;;;5076427;28;19934;-94
2021/12/12 14:35:00;;;;;;;;;;;10.40;99.90;;;;;;5057102;28;19916;-95
2021/12/12 14:37:29;;;;;;;;;;;10.40;99.90;;;;;;5072920;28;19913;-91
2021/12/12 14:40:05;;;;;;;;;;;10.40;99.90;;;;;;5075221;28;19916;-91
2021/12/12 14:42:32;;;;;;;;;;;10.30;99.90;;;;;;5073846;28;19920;-89
2021/12/12 14:45:06;;;;;;;;;;;10.40;99.90;;;;;;5075324;28;19919;-90
2021/12/12 14:47:33;;;;;;;;;;;10.30;99.90;;;;;;5066850;28;20338;-89
2021/12/12 14:50:06;;;;;;;;;;;10.30;99.90;;;;;;5069692;28;19917;-92
2021/12/12 14:52:33;;;;;;;;;;;10.30;99.90;;;;;;5076576;28;20342;-91
2021/12/12 14:55:09;;;;;;;;;;;10.30;99.90;;;;;;5067134;28;19916;-88
2021/12/12 14:57:36;;;;;;;;;;;10.30;99.90;;;;;;5074116;28;19912;-83
2021/12/12 15:00:21;;;;;;;;;;;10.30;99.90;;;;;;5064901;28;19912;-90
2021/12/12 15:02:50;;;;;;;;;;;10.30;99.90;;;;;;5075038;28;19908;-88
2021/12/12 15:05:16;;;;;;;;;;;10.40;99.90;;;;;;5076268;28;21197;-91
2021/12/12 15:07:43;;;;;;;;;;;10.40;99.90;;;;;;5075445;28;20398;-90
2021/12/12 15:10:27;;;;;;;;;;;10.40;99.90;;;;;;5069402;28;19908;-90
2021/12/12 15:12:54;;;;;;;;;;;10.30;99.90;;;;;;5073470;28;19920;-91